Game Lodge, South Dakota
Current Conditions -  °F | °C
As of 10:01 PM on Tuesday 25 Nov 2014 (Local Time) from KCUT Reporting Station
Overcast Overcast  
Wind Chill: 14°   Ceiling: 2900
Heat Index: 25°   Visibility: 10mi
Dew Point: 15°   Wind: 12mph
Humidity: 66%   Direction: 340°NNW
Pressure: 29.92"   Gusts: 22mph
Location:  43.6653°N, 103.766°W
Report Text: KCUT 260501Z AUTO 34010G19KT 10SM BKN029 BKN034 OVC120 M04/M09 A2992 RMK AO2 T10391094
Loading
Personal Weather Stations






























Interactive Weather Map New forecast layout! Learn more

10-Day Weather Forecast

Advertisements
Track Severe Weather on mobile